Cypress, California
Current Conditions -  °F | °C
As of 4:58 PM on Monday 24 Nov 2014 (Local Time) from KSLI Reporting Station
Clear Clear  
Wind Chill: 72°   Ceiling: Unl
Heat Index: 72°   Visibility: 10mi
Dew Point: 36°   Wind: 6mph
Humidity: 28%   Direction: 180°S
Pressure: 30.19"   Gusts: NA
Location:  33.82°N, 118.03°W
Report Text: KSLI 250058Z AUTO 18005KT 10SM CLR 22/02 A3019 RMK AO2 SLP226 T02200024
Loading
Personal Weather Stations






























Interactive Weather Map New forecast layout! Learn more

10-Day Weather Forecast

Advertisements
Track Severe Weather on mobile